Time;durP1;ratioP1;P1;durP2;ratioP2;P2;SDS_P1;SDS_P2;PMS_P1;PMS_P2;Temp;Humidity;BMP_temperature;BMP_pressure;BME280_temperature;BME280_humidity;BME280_pressure;Samples;Min_cycle;Max_cycle;Signal;HPM_P1;HPM_P2
2021/12/20 00:01:45;;;;;;;13.02;8.65;;;154.00;1868.80;;;;;;5095298;28;20066;-60
2021/12/20 00:04:11;;;;;;;17.48;8.73;;;154.00;1868.80;;;;;;5095211;28;20020;-65
2021/12/20 00:06:37;;;;;;;21.27;10.73;;;154.10;1868.80;;;;;;5076927;28;20080;-61
2021/12/20 00:09:04;;;;;;;20.05;11.38;;;154.00;1894.40;;;;;;5095234;28;20040;-61
2021/12/20 00:11:29;;;;;;;21.83;12.25;;;154.10;1868.80;;;;;;5095108;28;20224;-63
2021/12/20 00:13:55;;;;;;;25.63;13.40;;;154.00;1868.80;;;;;;5095583;28;20095;-65
2021/12/20 00:16:21;;;;;;;27.17;14.63;;;154.10;1868.80;;;;;;5095059;28;20378;-64
2021/12/20 00:18:47;;;;;;;24.50;14.10;;;154.00;1868.80;;;;;;5094234;28;20020;-65
2021/12/20 00:21:13;;;;;;;20.90;12.35;;;154.00;1894.40;;;;;;5094943;28;20081;-61
2021/12/20 00:23:38;;;;;;;24.13;12.93;;;154.00;1868.80;;;;;;5094944;28;20039;-61
2021/12/20 00:26:05;;;;;;;18.85;11.27;;;154.00;1894.40;;;;;;5094802;28;20118;-60
2021/12/20 00:28:30;;;;;;;24.80;13.77;;;154.10;1894.40;;;;;;5094905;28;20024;-63
2021/12/20 00:30:56;;;;;;;25.77;14.40;;;154.00;1868.80;;;;;;5094782;28;20149;-64
2021/12/20 00:33:22;;;;;;;22.40;12.65;;;154.00;1894.40;;;;;;5094738;28;20027;-64
2021/12/20 00:35:49;;;;;;;19.77;11.20;;;154.10;1868.80;;;;;;5076736;28;20462;-60
2021/12/20 00:40:59;;;;;;;19.38;10.90;;;154.10;1894.40;;;;;;5095252;28;20485;-64
2021/12/20 00:43:25;;;;;;;19.73;10.93;;;154.00;1894.40;;;;;;5094502;28;20052;-64
2021/12/20 00:45:51;;;;;;;19.05;12.20;;;154.10;1894.40;;;;;;5094225;28;20040;-64
2021/12/20 00:48:17;;;;;;;14.43;9.75;;;154.10;1868.80;;;;;;5094467;28;20458;-62
2021/12/20 00:50:44;;;;;;;15.00;10.15;;;154.10;1868.80;;;;;;5094586;28;20035;-63
2021/12/20 00:53:11;;;;;;;13.00;8.65;;;154.10;1868.80;;;;;;5094346;28;20020;-63
2021/12/20 00:55:37;;;;;;;14.07;8.98;;;154.00;1868.80;;;;;;5094579;28;20027;-60
2021/12/20 00:58:03;;;;;;;12.95;9.02;;;154.00;1894.40;;;;;;5094109;28;20027;-60
2021/12/20 01:00:39;;;;;;;13.23;9.63;;;153.90;1868.80;;;;;;5094167;28;20024;-64
2021/12/20 01:03:06;;;;;;;12.82;8.52;;;153.80;1868.80;;;;;;5094275;28;20046;-61
2021/12/20 01:05:32;;;;;;;10.90;7.72;;;153.80;1920.00;;;;;;5093939;28;20032;-64
2021/12/20 01:08:01;;;;;;;9.40;6.80;;;153.80;1868.80;;;;;;5094339;28;20111;-61
2021/12/20 01:10:29;;;;;;;8.20;6.15;;;153.80;1894.40;;;;;;5094824;28;20118;-62
2021/12/20 01:12:59;;;;;;;9.18;6.35;;;153.80;1894.40;;;;;;5094211;28;20031;-66
2021/12/20 01:15:32;;;;;;;10.07;7.10;;;153.70;1894.40;;;;;;5093983;28;20435;-65
2021/12/20 01:17:58;;;;;;;7.10;5.38;;;153.80;1894.40;;;;;;5094082;28;20070;-61
2021/12/20 01:20:24;;;;;;;9.05;6.53;;;153.70;1894.40;;;;;;5094026;28;20028;-60
2021/12/20 01:22:51;;;;;;;8.35;6.40;;;153.70;1894.40;;;;;;5093952;28;20032;-62
2021/12/20 01:25:18;;;;;;;8.57;5.72;;;153.80;1920.00;;;;;;5094014;28;20131;-60
2021/12/20 01:27:44;;;;;;;8.07;5.82;;;153.60;1894.40;;;;;;5093797;28;20442;-66
2021/12/20 01:30:12;;;;;;;8.07;5.88;;;153.70;1894.40;;;;;;5092730;28;20047;-65
2021/12/20 01:32:39;;;;;;;8.52;5.85;;;153.70;1920.00;;;;;;5093464;28;20024;-65
2021/12/20 01:35:05;;;;;;;7.97;5.50;;;153.60;1894.40;;;;;;5094178;28;20381;-61
2021/12/20 01:37:31;;;;;;;8.65;6.00;;;153.60;1894.40;;;;;;5093768;28;20417;-60
2021/12/20 01:39:59;;;;;;;6.72;5.03;;;153.60;1868.80;;;;;;5093901;28;20036;-60
2021/12/20 01:42:26;;;;;;;7.55;5.22;;;153.60;1920.00;;;;;;5093626;28;20032;-65
2021/12/20 01:44:56;;;;;;;8.68;5.68;;;153.70;1920.00;;;;;;5093415;28;20083;-60
2021/12/20 01:47:23;;;;;;;7.93;4.75;;;153.70;1868.80;;;;;;5093692;28;20398;-60
2021/12/20 01:49:57;;;;;;;6.35;4.43;;;153.70;1920.00;;;;;;5093698;28;20415;-60
2021/12/20 01:52:26;;;;;;;6.18;4.43;;;153.80;1894.40;;;;;;5093745;28;20420;-62
2021/12/20 01:54:52;;;;;;;7.53;5.18;;;153.80;1894.40;;;;;;5093600;28;20116;-65
2021/12/20 01:57:19;;;;;;;7.18;5.07;;;153.80;1920.00;;;;;;5093583;28;20051;-60
2021/12/20 01:59:45;;;;;;;6.30;4.55;;;153.80;1868.80;;;;;;5093602;28;20024;-66
2021/12/20 02:02:11;;;;;;;7.57;5.80;;;153.80;1894.40;;;;;;5093687;28;20024;-65
2021/12/20 02:04:44;;;;;;;7.82;4.80;;;153.90;1894.40;;;;;;5093689;28;20469;-66
2021/12/20 02:07:29;;;;;;;9.00;4.88;;;153.80;1868.80;;;;;;5093556;28;20032;-66
2021/12/20 02:09:55;;;;;;;7.22;4.63;;;153.80;1894.40;;;;;;5093478;28;20509;-66
2021/12/20 02:12:21;;;;;;;7.50;5.03;;;153.80;1868.80;;;;;;5093394;28;20055;-67
2021/12/20 02:14:47;;;;;;;7.75;5.22;;;153.80;1894.40;;;;;;5093412;28;20035;-64
2021/12/20 02:17:14;;;;;;;5.75;4.60;;;153.90;1920.00;;;;;;5093506;28;20054;-63
2021/12/20 02:19:39;;;;;;;6.70;5.18;;;153.80;1868.80;;;;;;5093454;28;20031;-63
2021/12/20 02:22:06;;;;;;;6.20;4.60;;;153.80;1894.40;;;;;;5093246;28;20091;-61
2021/12/20 02:24:32;;;;;;;7.43;4.82;;;153.80;1868.80;;;;;;5093213;28;20035;-60
2021/12/20 02:26:57;;;;;;;6.43;4.70;;;153.70;1894.40;;;;;;5093243;28;20036;-60
2021/12/20 02:29:39;;;;;;;6.43;4.45;;;153.70;1920.00;;;;;;5093347;28;20385;-62
2021/12/20 02:37:34;;;;;;;6.33;4.43;;;153.70;1868.80;;;;;;5093282;28;20044;-60
2021/12/20 02:39:59;;;;;;;7.05;5.07;;;153.60;1894.40;;;;;;5093137;28;20028;-61
2021/12/20 02:42:32;;;;;;;8.15;5.13;;;153.60;1920.00;;;;;;5096552;28;20069;-61
2021/12/20 02:45:33;;;;;;;8.43;5.22;;;153.60;1868.80;;;;;;5096425;28;20056;-61
2021/12/20 02:47:49;;;;;;;7.82;4.95;;;128.90;1894.40;;;;;;5092655;28;20512;-60
2021/12/20 02:50:15;;;;;;;7.15;4.53;;;128.90;1894.40;;;;;;5096876;28;20028;-59
2021/12/20 02:52:42;;;;;;;5.55;4.03;;;128.90;1894.40;;;;;;5096706;28;20020;-60
2021/12/20 02:55:09;;;;;;;5.88;4.07;;;128.90;1920.00;;;;;;5096796;28;20092;-60
2021/12/20 02:57:36;;;;;;;6.70;4.30;;;128.90;1894.40;;;;;;5096740;28;20103;-60
2021/12/20 03:00:05;;;;;;;6.13;4.50;;;153.60;1894.40;;;;;;5096907;28;20023;-60
2021/12/20 03:02:30;;;;;;;4.68;3.83;;;153.60;1894.40;;;;;;5096461;28;20031;-61
2021/12/20 03:04:56;;;;;;;6.57;4.70;;;153.60;1868.80;;;;;;5096695;28;20027;-61
2021/12/20 03:07:25;;;;;;;7.57;4.95;;;153.60;1894.40;;;;;;5096295;28;20158;-67
2021/12/20 03:09:57;;;;;;;5.57;4.35;;;153.60;1894.40;;;;;;5096457;28;20028;-66
2021/12/20 03:12:27;;;;;;;9.82;5.25;;;128.90;1894.40;;;;;;5096953;28;20416;-65
2021/12/20 03:15:00;;;;;;;5.53;4.60;;;153.60;1920.00;;;;;;5096425;28;20028;-60
2021/12/20 03:17:25;;;;;;;5.85;4.53;;;153.60;1868.80;;;;;;5096195;28;20486;-65
2021/12/20 03:19:51;;;;;;;7.05;4.95;;;153.60;1920.00;;;;;;5096105;28;20024;-64
2021/12/20 03:22:18;;;;;;;7.95;4.85;;;153.60;1920.00;;;;;;5096215;28;20028;-60
2021/12/20 03:24:44;;;;;;;6.43;4.55;;;153.60;1894.40;;;;;;5096353;28;20498;-65
2021/12/20 03:27:10;;;;;;;6.68;4.57;;;153.70;1894.40;;;;;;5096091;28;20378;-65
2021/12/20 03:29:35;;;;;;;8.18;4.70;;;153.70;1894.40;;;;;;5095837;28;20035;-65
2021/12/20 03:32:01;;;;;;;6.45;4.47;;;153.70;1894.40;;;;;;5077286;28;20036;-66
2021/12/20 03:34:27;;;;;;;7.68;4.32;;;153.70;1894.40;;;;;;5095861;28;20130;-67
2021/12/20 03:36:53;;;;;;;6.82;4.40;;;153.70;1868.80;;;;;;5095950;28;20051;-63
2021/12/20 03:39:19;;;;;;;6.28;4.20;;;153.60;1894.40;;;;;;5095877;28;20081;-64
2021/12/20 03:41:44;;;;;;;6.93;4.15;;;153.60;1894.40;;;;;;5095595;28;20035;-64
2021/12/20 03:44:11;;;;;;;6.15;3.92;;;153.60;1868.80;;;;;;5095249;28;20040;-64
2021/12/20 03:46:37;;;;;;;7.22;3.63;;;153.70;1894.40;;;;;;5095597;28;20477;-61
2021/12/20 03:49:05;;;;;;;7.68;3.63;;;153.70;1868.80;;;;;;5095449;28;20020;-62
2021/12/20 03:51:31;;;;;;;6.47;3.72;;;153.70;1868.80;;;;;;5095616;28;20141;-62
2021/12/20 03:53:56;;;;;;;7.47;3.92;;;153.70;1920.00;;;;;;5094511;28;20042;-61
2021/12/20 03:56:22;;;;;;;7.18;4.30;;;153.70;1894.40;;;;;;5095549;28;20020;-64
2021/12/20 03:58:48;;;;;;;8.23;4.15;;;153.70;1894.40;;;;;;5095428;28;20016;-61
2021/12/20 04:01:14;;;;;;;6.57;3.92;;;153.70;1894.40;;;;;;5095381;28;20101;-59
2021/12/20 04:03:41;;;;;;;6.85;4.10;;;153.60;1894.40;;;;;;5095222;28;20095;-59
2021/12/20 04:06:11;;;;;;;4.70;3.45;;;153.60;1920.00;;;;;;5095171;28;20042;-60
2021/12/20 04:08:37;;;;;;;4.72;2.97;;;153.70;1894.40;;;;;;5095325;28;20027;-60
2021/12/20 04:11:04;;;;;;;4.57;2.85;;;153.60;1920.00;;;;;;5095284;28;20055;-64
2021/12/20 04:13:30;;;;;;;4.28;3.28;;;153.60;1945.60;;;;;;5095067;28;20394;-60
2021/12/20 04:15:56;;;;;;;6.68;4.15;;;153.60;1868.80;;;;;;5095126;28;20046;-66
2021/12/20 04:18:23;;;;;;;13.35;6.20;;;153.60;1920.00;;;;;;5095089;28;20453;-64
2021/12/20 04:20:49;;;;;;;13.40;6.13;;;153.70;1945.60;;;;;;5094997;28;20039;-64
2021/12/20 04:23:15;;;;;;;8.95;5.28;;;153.70;1945.60;;;;;;5095002;28;20020;-61
2021/12/20 04:25:41;;;;;;;15.38;5.85;;;153.80;1920.00;;;;;;5094870;28;20052;-64
2021/12/20 04:28:06;;;;;;;14.77;5.60;;;153.90;1945.60;;;;;;5094982;28;20065;-64
2021/12/20 04:30:33;;;;;;;14.32;6.90;;;153.90;1945.60;;;;;;5094557;28;20042;-64
2021/12/20 04:32:59;;;;;;;19.63;8.52;;;153.90;1945.60;;;;;;5094824;28;20024;-60
2021/12/20 04:35:25;;;;;;;14.80;7.15;;;153.90;1945.60;;;;;;5094581;28;20035;-60
2021/12/20 04:37:52;;;;;;;12.80;7.85;;;153.80;1945.60;;;;;;5094735;28;20032;-60
2021/12/20 04:40:21;;;;;;;11.10;6.88;;;153.80;1971.20;;;;;;5094650;28;20020;-60
2021/12/20 04:42:52;;;;;;;8.52;5.68;;;154.00;1945.60;;;;;;5094536;28;20044;-60
2021/12/20 04:45:18;;;;;;;9.88;5.07;;;154.00;1945.60;;;;;;5094453;28;20016;-60
2021/12/20 04:47:43;;;;;;;8.18;4.88;;;154.00;1945.60;;;;;;5094337;28;20073;-60
2021/12/20 04:50:11;;;;;;;11.73;5.45;;;154.00;1945.60;;;;;;5094480;28;20032;-61
2021/12/20 04:52:37;;;;;;;7.97;5.20;;;154.00;1945.60;;;;;;5094352;28;20351;-61
2021/12/20 04:55:05;;;;;;;12.63;5.28;;;154.10;1920.00;;;;;;5094416;28;20021;-61
2021/12/20 04:57:31;;;;;;;9.43;5.07;;;154.00;1945.60;;;;;;5094286;28;20047;-60
2021/12/20 04:59:57;;;;;;;8.27;4.80;;;154.10;1920.00;;;;;;5093792;28;20474;-60
2021/12/20 05:02:22;;;;;;;8.30;4.80;;;154.20;1920.00;;;;;;5094233;28;20039;-60
2021/12/20 05:04:48;;;;;;;9.07;4.20;;;154.20;1945.60;;;;;;5094133;28;20031;-62
2021/12/20 05:07:14;;;;;;;7.93;4.60;;;154.20;1920.00;;;;;;5094265;28;20059;-61
2021/12/20 05:09:41;;;;;;;7.85;3.72;;;154.20;1920.00;;;;;;5094155;28;20024;-60
2021/12/20 05:12:14;;;;;;;6.93;4.70;;;154.30;1920.00;;;;;;5093952;28;20040;-60
2021/12/20 05:14:43;;;;;;;6.47;4.88;;;154.30;1920.00;;;;;;5093986;28;20052;-60
2021/12/20 05:17:11;;;;;;;7.45;4.63;;;154.20;1945.60;;;;;;5094115;28;20024;-63
2021/12/20 05:19:38;;;;;;;7.45;4.45;;;154.20;1945.60;;;;;;5094012;28;20028;-60
2021/12/20 05:22:04;;;;;;;8.55;4.13;;;154.30;1920.00;;;;;;5094057;28;20020;-58
2021/12/20 05:24:30;;;;;;;8.40;4.57;;;154.20;1945.60;;;;;;5094429;28;20111;-60
2021/12/20 05:26:56;;;;;;;8.10;5.30;;;154.20;1945.60;;;;;;5094020;28;20115;-59
2021/12/20 05:29:24;;;;;;;10.30;5.43;;;154.20;1945.60;;;;;;5093925;28;20044;-60
2021/12/20 05:31:50;;;;;;;10.30;5.72;;;154.20;1945.60;;;;;;5093867;28;20042;-60
2021/12/20 05:34:16;;;;;;;9.20;5.97;;;154.20;1945.60;;;;;;5093842;28;20048;-61
2021/12/20 05:36:42;;;;;;;11.95;6.82;;;154.20;1945.60;;;;;;5093829;28;20520;-60
2021/12/20 05:39:08;;;;;;;11.05;7.10;;;154.20;1945.60;;;;;;5093691;28;20028;-59
2021/12/20 05:41:33;;;;;;;13.75;7.63;;;154.20;1945.60;;;;;;5093647;28;20150;-63
2021/12/20 05:43:59;;;;;;;13.65;7.40;;;154.20;1971.20;;;;;;5093564;28;20059;-60
2021/12/20 05:46:25;;;;;;;12.88;7.88;;;154.20;1971.20;;;;;;5093304;28;20036;-60
2021/12/20 05:48:51;;;;;;;17.58;9.65;;;154.20;1971.20;;;;;;5093713;28;20032;-59
2021/12/20 05:51:17;;;;;;;20.98;9.73;;;154.20;1971.20;;;;;;5093825;28;20055;-62
2021/12/20 05:53:43;;;;;;;16.10;8.40;;;154.30;1971.20;;;;;;5093638;28;20485;-60
2021/12/20 05:56:08;;;;;;;15.43;8.43;;;154.20;1971.20;;;;;;5093632;28;20020;-59
2021/12/20 05:58:34;;;;;;;15.43;7.90;;;154.30;1971.20;;;;;;5093687;28;20023;-60
2021/12/20 06:01:00;;;;;;;14.02;7.95;;;154.40;1945.60;;;;;;5093175;28;20070;-59
2021/12/20 06:03:25;;;;;;;14.80;7.55;;;154.40;1945.60;;;;;;5093689;28;20077;-62
2021/12/20 06:05:51;;;;;;;13.07;7.07;;;154.50;1945.60;;;;;;5093244;28;20422;-63
2021/12/20 06:08:17;;;;;;;16.02;8.35;;;154.50;1945.60;;;;;;5093335;28;20031;-61
2021/12/20 06:10:42;;;;;;;17.80;9.63;;;154.50;1945.60;;;;;;5093298;28;20359;-62
2021/12/20 06:13:08;;;;;;;25.05;11.80;;;154.50;1945.60;;;;;;5093340;28;20027;-60
2021/12/20 06:15:34;;;;;;;25.45;13.13;;;179.20;1945.60;;;;;;5094195;28;20020;-60
2021/12/20 06:18:00;;;;;;;25.63;12.93;;;179.20;1920.00;;;;;;5097536;28;20465;-60
2021/12/20 06:20:26;;;;;;;23.15;11.65;;;179.20;1920.00;;;;;;5097436;28;20017;-63
2021/12/20 06:22:52;;;;;;;18.30;11.23;;;179.30;1920.00;;;;;;5096992;28;20420;-60
2021/12/20 06:25:18;;;;;;;18.20;10.40;;;179.30;1920.00;;;;;;5096716;28;20047;-62
2021/12/20 06:27:44;;;;;;;22.77;13.15;;;179.30;1920.00;;;;;;5097344;28;20036;-66
2021/12/20 06:30:11;;;;;;;22.70;13.15;;;179.30;1920.00;;;;;;5096707;28;20028;-61
2021/12/20 06:32:38;;;;;;;21.35;11.95;;;179.40;1920.00;;;;;;5096914;28;20039;-60
2021/12/20 06:35:05;;;;;;;24.55;11.60;;;179.40;1920.00;;;;;;5097105;28;20024;-60
2021/12/20 06:37:31;;;;;;;21.17;10.18;;;179.30;1920.00;;;;;;5096756;28;20036;-60
2021/12/20 06:39:58;;;;;;;22.25;10.82;;;179.40;1920.00;;;;;;5096765;28;20032;-63
2021/12/20 06:42:23;;;;;;;25.30;11.35;;;179.30;1920.00;;;;;;5097000;28;20111;-65
2021/12/20 06:44:49;;;;;;;21.85;9.85;;;179.30;1920.00;;;;;;5096469;28;20561;-59
2021/12/20 06:47:16;;;;;;;18.75;8.95;;;179.30;1920.00;;;;;;5096789;28;20040;-64
2021/12/20 06:49:41;;;;;;;19.67;9.35;;;179.30;1894.40;;;;;;5096986;28;20028;-60
2021/12/20 06:52:07;;;;;;;30.92;9.98;;;179.30;1894.40;;;;;;5096543;28;20111;-60
2021/12/20 06:54:33;;;;;;;23.67;9.85;;;179.40;1996.80;;;;;;5096616;28;20434;-60
2021/12/20 06:56:59;;;;;;;24.20;11.52;;;179.40;1920.00;;;;;;5096965;28;20482;-59
2021/12/20 06:59:25;;;;;;;33.13;14.90;;;179.40;1894.40;;;;;;5096412;28;20028;-60
2021/12/20 07:01:51;;;;;;;28.70;13.88;;;179.40;1894.40;;;;;;5096429;28;20032;-60
2021/12/20 07:04:17;;;;;;;24.50;10.95;;;179.50;1868.80;;;;;;5096573;28;20035;-61
2021/12/20 07:06:42;;;;;;;20.15;9.90;;;179.50;1868.80;;;;;;5096455;28;20043;-59
2021/12/20 07:09:09;;;;;;;19.40;10.10;;;179.40;1868.80;;;;;;5096526;28;20028;-59
2021/12/20 07:11:35;;;;;;;25.05;12.00;;;179.30;1868.80;;;;;;5096412;28;20028;-61
2021/12/20 07:14:02;;;;;;;28.52;14.40;;;179.30;1868.80;;;;;;5096200;28;20461;-60
2021/12/20 07:16:32;;;;;;;26.60;13.25;;;179.30;1868.80;;;;;;5096380;28;20382;-60
2021/12/20 07:18:58;;;;;;;27.13;16.02;;;179.30;1868.80;;;;;;5096343;28;20027;-59
2021/12/20 07:21:24;;;;;;;31.67;18.73;;;179.20;1868.80;;;;;;5095918;28;20032;-65
2021/12/20 07:23:49;;;;;;;49.30;24.40;;;179.20;1868.80;;;;;;5095976;28;20039;-60
2021/12/20 07:26:15;;;;;;;35.22;20.38;;;179.20;1868.80;;;;;;5095720;28;20032;-60
2021/12/20 07:28:43;;;;;;;28.27;19.42;;;179.20;1868.80;;;;;;5094784;28;20028;-60
2021/12/20 07:31:13;;;;;;;31.30;17.25;;;179.20;1868.80;;;;;;5087132;28;20056;-61
2021/12/20 07:33:40;;;;;;;25.83;15.60;;;179.20;1868.80;;;;;;5085252;28;20054;-61
2021/12/20 07:36:07;;;;;;;20.67;13.50;;;154.50;1868.80;;;;;;5083921;28;20047;-59
2021/12/20 07:38:34;;;;;;;17.90;10.55;;;179.20;1868.80;;;;;;5083698;28;20497;-60
2021/12/20 07:41:00;;;;;;;15.68;9.10;;;179.20;1843.20;;;;;;5084354;28;20036;-59
2021/12/20 07:43:26;;;;;;;15.85;8.20;;;179.20;1843.20;;;;;;5083997;28;20048;-59
2021/12/20 07:45:52;;;;;;;11.60;6.93;;;179.20;1843.20;;;;;;5085226;28;20032;-59
2021/12/20 07:48:20;;;;;;;15.65;6.80;;;179.30;1817.60;;;;;;5085618;28;20032;-61
2021/12/20 07:50:47;;;;;;;12.18;6.65;;;179.20;1843.20;;;;;;5083763;28;20097;-60
2021/12/20 07:53:14;;;;;;;11.15;6.30;;;179.30;1843.20;;;;;;5085296;28;20103;-60
2021/12/20 07:55:41;;;;;;;16.40;6.93;;;179.30;1843.20;;;;;;5085441;28;20078;-60
2021/12/20 07:58:07;;;;;;;13.23;6.60;;;179.20;1843.20;;;;;;5083417;28;20026;-62
2021/12/20 08:00:33;;;;;;;13.32;7.38;;;179.20;1843.20;;;;;;5085189;28;20362;-63
2021/12/20 08:02:59;;;;;;;15.93;8.25;;;179.20;1843.20;;;;;;5085333;28;20348;-65
2021/12/20 08:05:26;;;;;;;18.92;8.43;;;179.30;1843.20;;;;;;5085603;28;20035;-64
2021/12/20 08:07:52;;;;;;;13.52;6.97;;;179.30;1843.20;;;;;;5083235;28;20028;-62
2021/12/20 08:10:23;;;;;;;15.55;7.45;;;179.30;1843.20;;;;;;5084623;28;20466;-59
2021/12/20 08:12:50;;;;;;;13.32;7.93;;;179.30;1817.60;;;;;;5083998;28;20112;-59
2021/12/20 08:15:16;;;;;;;18.67;7.93;;;179.30;1817.60;;;;;;5084432;28;20028;-61
2021/12/20 08:17:42;;;;;;;14.07;7.30;;;179.30;1817.60;;;;;;5088549;28;20560;-64
2021/12/20 08:20:10;;;;;;;18.13;7.43;;;179.30;1817.60;;;;;;5090100;28;20055;-59
2021/12/20 08:22:36;;;;;;;21.20;8.63;;;179.40;1817.60;;;;;;5088069;28;20110;-60
2021/12/20 08:25:02;;;;;;;20.58;8.57;;;179.40;1817.60;;;;;;5084910;28;20553;-61
2021/12/20 08:27:28;;;;;;;21.83;9.05;;;179.40;1817.60;;;;;;5075447;28;20097;-59
2021/12/20 08:29:54;;;;;;;20.70;8.13;;;179.40;1817.60;;;;;;5094483;28;20416;-59
2021/12/20 08:32:19;;;;;;;19.05;8.75;;;179.40;1843.20;;;;;;5094341;28;20448;-59
2021/12/20 08:34:45;;;;;;;17.05;7.28;;;179.50;1817.60;;;;;;5094365;28;20024;-59
2021/12/20 08:37:11;;;;;;;17.63;7.65;;;179.50;1843.20;;;;;;5094323;28;20409;-59
2021/12/20 08:39:37;;;;;;;13.07;6.85;;;179.50;1817.60;;;;;;5093577;28;20024;-60
2021/12/20 08:42:03;;;;;;;12.65;6.15;;;179.50;1817.60;;;;;;5094253;28;20073;-61
2021/12/20 08:44:30;;;;;;;16.75;7.65;;;179.60;1817.60;;;;;;5094006;28;20071;-59
2021/12/20 08:46:58;;;;;;;27.95;8.70;;;179.60;1817.60;;;;;;5093907;28;20397;-60
2021/12/20 08:49:24;;;;;;;80.40;12.00;;;179.60;1817.60;;;;;;5094365;28;20063;-61
2021/12/20 08:51:50;;;;;;;31.08;10.02;;;179.60;1792.00;;;;;;5094312;28;20036;-60
2021/12/20 08:54:16;;;;;;;15.30;6.55;;;179.70;1792.00;;;;;;5093883;28;20020;-58
2021/12/20 08:56:42;;;;;;;15.23;6.53;;;179.70;1792.00;;;;;;5094058;28;20028;-59
2021/12/20 08:59:09;;;;;;;16.77;7.75;;;179.70;1792.00;;;;;;5093564;28;20027;-58
2021/12/20 09:01:35;;;;;;;20.08;8.82;;;179.70;1817.60;;;;;;5093763;28;20052;-58
2021/12/20 09:04:03;;;;;;;19.10;8.15;;;179.70;1817.60;;;;;;5093942;28;20031;-59
2021/12/20 09:06:30;;;;;;;58.95;24.30;;;179.80;1792.00;;;;;;5093815;28;20040;-60
2021/12/20 09:08:55;;;;;;;85.30;44.08;;;179.80;1766.40;;;;;;5093556;28;20039;-60
2021/12/20 09:11:23;;;;;;;123.03;63.85;;;180.00;2022.40;;;;;;5093525;28;20036;-64
2021/12/20 09:13:49;;;;;;;110.25;59.17;;;205.20;2099.20;;;;;;5093714;28;20466;-60
2021/12/20 09:16:15;;;;;;;58.90;33.03;;;205.70;2099.20;;;;;;5093444;28;20028;-61
2021/12/20 09:18:41;;;;;;;52.17;28.70;;;230.80;1945.60;;;;;;5093908;28;20028;-64
2021/12/20 09:21:09;;;;;;;51.92;31.27;;;231.30;1920.00;;;;;;5093644;28;20545;-60
2021/12/20 09:23:36;;;;;;;128.80;83.47;;;231.30;1612.80;;;;;;5093188;28;20027;-60
2021/12/20 09:26:03;;;;;;;52.60;27.88;;;231.10;1561.60;;;;;;5093438;28;20040;-60
2021/12/20 09:28:29;;;;;;;25.40;14.10;;;231.00;1536.00;;;;;;5093477;28;20024;-59
2021/12/20 09:30:55;;;;;;;21.40;13.35;;;230.80;1561.60;;;;;;5093537;28;20054;-60
2021/12/20 09:33:20;;;;;;;59.83;35.63;;;230.60;1561.60;;;;;;5093654;28;20024;-59
2021/12/20 09:35:47;;;;;;;71.57;42.55;;;230.50;1561.60;;;;;;5093588;28;20390;-60
2021/12/20 09:38:17;;;;;;;54.05;33.75;;;230.40;1587.20;;;;;;5093136;28;20424;-60
2021/12/20 09:41:12;;;;;;;44.60;28.52;;;205.70;1561.60;;;;;;5093272;28;20051;-61
2021/12/20 09:43:32;;;;;;;25.85;15.75;;;205.70;1587.20;;;;;;5093063;28;20178;-60
2021/12/20 09:45:58;;;;;;;20.60;9.50;;;205.60;1561.60;;;;;;5093208;28;20119;-60
2021/12/20 09:48:24;;;;;;;13.73;7.38;;;205.60;1561.60;;;;;;5074864;28;20542;-60
2021/12/20 09:50:50;;;;;;;20.25;10.95;;;205.60;1561.60;;;;;;5094354;28;20024;-60
2021/12/20 09:53:16;;;;;;;23.88;12.30;;;205.50;1587.20;;;;;;5097406;28;20095;-60
2021/12/20 09:55:47;;;;;;;30.17;12.95;;;205.50;1561.60;;;;;;5097496;28;20024;-61
2021/12/20 09:58:13;;;;;;;20.02;9.48;;;205.50;1561.60;;;;;;5097435;28;20539;-60
2021/12/20 10:00:39;;;;;;;12.45;7.00;;;205.50;1561.60;;;;;;5097076;28;20115;-59
2021/12/20 10:03:05;;;;;;;16.95;7.57;;;205.50;1587.20;;;;;;5097619;28;20054;-59
2021/12/20 10:05:33;;;;;;;19.20;8.57;;;205.50;1561.60;;;;;;5097172;28;20089;-60
2021/12/20 10:08:02;;;;;;;14.18;6.85;;;205.50;1561.60;;;;;;5097098;28;20024;-60
2021/12/20 10:10:54;;;;;;;16.50;7.38;;;205.50;1561.60;;;;;;5095230;28;20081;-61
2021/12/20 10:13:24;;;;;;;15.27;8.15;;;205.50;1536.00;;;;;;5088812;28;20028;-62
2021/12/20 10:15:51;;;;;;;13.88;7.25;;;205.50;1536.00;;;;;;5096319;28;20020;-61
2021/12/20 10:18:17;;;;;;;13.80;7.82;;;205.50;1536.00;;;;;;5096778;28;20412;-62
2021/12/20 10:20:53;;;;;;;14.45;7.70;;;205.50;1536.00;;;;;;5089022;28;20028;-60
2021/12/20 10:23:27;;;;;;;14.77;7.68;;;205.50;1536.00;;;;;;5090171;28;20028;-60
2021/12/20 10:25:58;;;;;;;11.50;6.13;;;205.60;1510.40;;;;;;5095637;28;20040;-60
2021/12/20 10:28:29;;;;;;;13.90;6.97;;;205.60;1510.40;;;;;;5089846;28;20024;-60
2021/12/20 10:31:06;;;;;;;17.60;8.27;;;205.60;1510.40;;;;;;5088429;28;20574;-60
2021/12/20 10:33:33;;;;;;;13.65;6.20;;;205.60;1484.80;;;;;;5079203;28;20550;-60
2021/12/20 10:36:02;;;;;;;11.95;6.03;;;205.60;1484.80;;;;;;5084487;28;20027;-63
2021/12/20 10:38:33;;;;;;;11.82;5.97;;;205.60;1484.80;;;;;;5089567;28;20059;-63
2021/12/20 10:41:18;;;;;;;16.42;8.55;;;205.60;1484.80;;;;;;5087003;28;20383;-59
2021/12/20 10:43:57;;;;;;;11.82;6.63;;;205.70;1484.80;;;;;;5087867;28;20067;-60
2021/12/20 10:46:27;;;;;;;91.60;48.80;;;205.70;1459.20;;;;;;5081283;28;20483;-65
2021/12/20 10:49:08;;;;;;;328.13;169.10;;;205.70;1433.60;;;;;;5076019;28;20488;-60
2021/12/20 10:51:42;;;;;;;290.35;140.20;;;205.70;1459.20;;;;;;5078488;28;20035;-62
2021/12/20 10:54:12;;;;;;;95.63;57.30;;;230.40;1484.80;;;;;;5075735;28;20095;-64
2021/12/20 10:56:55;;;;;;;112.35;63.80;;;230.40;1433.60;;;;;;5084443;28;20029;-60
2021/12/20 10:59:23;;;;;;;108.80;59.47;;;230.40;1433.60;;;;;;5085678;28;20018;-61
2021/12/20 11:04:42;;;;;;;110.85;58.72;;;230.40;1433.60;;;;;;5085726;28;20039;-61
2021/12/20 11:09:40;;;;;;;46.85;21.83;;;230.40;1408.00;;;;;;5083897;28;20024;-61
2021/12/20 11:12:15;;;;;;;22.67;11.95;;;230.40;1433.60;;;;;;5083898;28;20031;-60
2021/12/20 11:14:50;;;;;;;35.83;19.02;;;230.40;1433.60;;;;;;5085382;28;20093;-64
2021/12/20 11:17:18;;;;;;;25.58;16.00;;;230.40;1433.60;;;;;;5085322;28;20537;-61
2021/12/20 11:19:51;;;;;;;20.23;9.45;;;230.40;1433.60;;;;;;5084869;28;20016;-61
2021/12/20 11:22:26;;;;;;;20.15;11.25;;;230.40;1433.60;;;;;;5085142;28;20034;-61
2021/12/20 11:24:52;;;;;;;23.55;13.07;;;230.40;1433.60;;;;;;5085420;28;20016;-61
2021/12/20 11:27:19;;;;;;;26.80;15.10;;;230.40;1433.60;;;;;;5082350;28;20085;-60
2021/12/20 11:29:47;;;;;;;26.27;13.70;;;230.50;1408.00;;;;;;5084592;28;20412;-62
2021/12/20 11:32:13;;;;;;;17.55;9.30;;;230.50;1408.00;;;;;;5084971;28;20027;-62
2021/12/20 11:34:41;;;;;;;21.23;10.63;;;230.50;1382.40;;;;;;5083996;28;20032;-60
2021/12/20 11:37:12;;;;;;;20.40;11.43;;;230.50;1382.40;;;;;;5084773;28;20040;-66
2021/12/20 11:39:38;;;;;;;23.17;12.85;;;230.50;1382.40;;;;;;5087531;28;20110;-62
2021/12/20 11:42:06;;;;;;;21.58;10.00;;;230.40;1382.40;;;;;;5084507;28;20074;-64
2021/12/20 11:44:33;;;;;;;19.40;10.35;;;230.40;1382.40;;;;;;5065177;28;20048;-60
2021/12/20 11:47:21;;;;;;;20.23;9.50;;;230.50;1408.00;;;;;;5061525;28;20049;-64
2021/12/20 11:49:56;;;;;;;17.95;11.20;;;230.40;1408.00;;;;;;5061789;28;20024;-61
2021/12/20 11:52:22;;;;;;;26.90;15.38;;;230.40;1408.00;;;;;;5064235;28;20391;-60
2021/12/20 11:54:53;;;;;;;20.85;13.15;;;230.40;1408.00;;;;;;5062625;28;20171;-61
2021/12/20 11:57:28;;;;;;;13.38;5.97;;;230.40;1408.00;;;;;;5074983;28;20028;-59
2021/12/20 11:59:57;;;;;;;12.63;6.43;;;230.40;1433.60;;;;;;5074485;28;20024;-59
2021/12/20 12:02:29;;;;;;;12.88;6.55;;;230.40;1408.00;;;;;;5074356;28;20103;-55
2021/12/20 12:04:59;;;;;;;13.77;7.80;;;230.40;1408.00;;;;;;5074683;28;20386;-61
2021/12/20 12:07:28;;;;;;;18.35;9.35;;;205.70;1408.00;;;;;;5074353;28;20367;-57
2021/12/20 12:09:58;;;;;;;20.10;9.88;;;205.70;1433.60;;;;;;5074708;28;20466;-56
2021/12/20 12:12:26;;;;;;;13.13;7.65;;;230.40;1433.60;;;;;;5074585;28;20017;-57
2021/12/20 12:15:08;;;;;;;17.42;9.20;;;205.70;1408.00;;;;;;5066167;28;20051;-57
2021/12/20 12:17:53;;;;;;;10.65;5.80;;;205.70;1408.00;;;;;;5059607;28;20043;-57
2021/12/20 12:20:50;;;;;;;11.65;5.80;;;205.70;1408.00;;;;;;5061140;28;20567;-57
2021/12/20 12:23:20;;;;;;;14.60;6.38;;;205.70;1408.00;;;;;;5060083;28;20382;-56
2021/12/20 12:25:49;;;;;;;11.75;6.15;;;205.70;1433.60;;;;;;5062147;28;20040;-57